createdAt,value
2022-11-09T00:00:11.469Z,3.90
2022-11-09T00:02:43.729Z,6.10
2022-11-09T00:05:06.665Z,5.70
2022-11-09T00:07:34.230Z,3.83
2022-11-09T00:10:01.885Z,2.30
2022-11-09T00:12:29.290Z,4.63
2022-11-09T00:14:56.865Z,6.10
2022-11-09T00:17:25.166Z,4.07
2022-11-09T00:19:52.691Z,6.07
2022-11-09T00:22:20.239Z,3.47
2022-11-09T00:24:47.770Z,3.23
2022-11-09T00:27:17.519Z,3.03
2022-11-09T00:29:42.871Z,2.07
2022-11-09T00:32:10.404Z,1.60
2022-11-09T00:34:38.757Z,2.40
2022-11-09T00:37:06.301Z,3.63
2022-11-09T00:39:33.847Z,1.57
2022-11-09T00:42:01.371Z,3.77
2022-11-09T00:44:28.927Z,2.60
2022-11-09T00:46:56.472Z,4.53
2022-11-09T00:49:24.773Z,4.13
2022-11-09T00:51:52.347Z,3.00
2022-11-09T00:54:19.875Z,4.77
2022-11-09T00:56:48.175Z,4.30
2022-11-09T00:59:15.749Z,1.70
2022-11-09T01:01:43.310Z,2.47
2022-11-09T01:04:11.578Z,1.90
2022-11-09T01:06:39.175Z,2.50
2022-11-09T01:09:06.686Z,2.03
2022-11-09T01:11:34.212Z,2.60
2022-11-09T01:14:02.536Z,1.57
2022-11-09T01:16:30.077Z,1.83
2022-11-09T01:18:57.622Z,2.70
2022-11-09T01:21:25.177Z,2.10
2022-11-09T01:23:53.478Z,2.60
2022-11-09T01:26:21.014Z,1.37
2022-11-09T01:28:49.336Z,2.47
2022-11-09T01:31:16.882Z,1.87
2022-11-09T01:33:44.430Z,2.60
2022-11-09T01:36:14.963Z,4.40
2022-11-09T01:38:42.498Z,2.77
2022-11-09T01:41:10.063Z,2.40
2022-11-09T01:43:38.380Z,1.83
2022-11-09T01:46:17.892Z,1.03
2022-11-09T01:48:50.816Z,1.37
2022-11-09T01:51:33.492Z,3.03
2022-11-09T01:54:03.744Z,1.67
2022-11-09T01:56:31.268Z,2.70
2022-11-09T01:59:01.613Z,2.12
2022-11-09T02:01:29.219Z,1.57
2022-11-09T02:03:56.722Z,3.03
2022-11-09T02:06:24.245Z,3.13
2022-11-09T02:08:52.614Z,1.40
2022-11-09T02:11:20.931Z,3.70
2022-11-09T02:13:54.351Z,2.80
2022-11-09T02:16:21.943Z,2.57
2022-11-09T02:18:52.335Z,4.87
2022-11-09T02:21:19.861Z,1.90
2022-11-09T02:23:47.413Z,5.60
2022-11-09T02:26:14.952Z,3.37
2022-11-09T02:28:43.251Z,3.53
2022-11-09T02:31:10.807Z,1.63
2022-11-09T02:33:56.664Z,2.00
2022-11-09T02:36:24.218Z,2.03
2022-11-09T02:38:51.744Z,2.77
2022-11-09T02:41:19.273Z,2.30
2022-11-09T02:43:46.847Z,2.23
2022-11-09T02:46:14.376Z,1.90
2022-11-09T02:48:42.674Z,1.97
2022-11-09T02:51:10.230Z,2.63
2022-11-09T02:53:37.773Z,1.60
2022-11-09T02:56:06.076Z,5.33
2022-11-09T02:58:33.649Z,2.50
2022-11-09T03:01:01.317Z,2.95
2022-11-09T03:03:28.731Z,2.53
2022-11-09T03:05:56.509Z,2.70
2022-11-09T03:08:24.033Z,2.93
2022-11-09T03:10:52.327Z,2.10
2022-11-09T03:13:21.104Z,2.50
2022-11-09T03:15:48.203Z,1.73
2022-11-09T03:18:15.739Z,1.30
2022-11-09T03:20:43.303Z,1.10
2022-11-09T03:23:13.507Z,2.50
2022-11-09T03:25:41.051Z,2.07
2022-11-09T03:28:09.373Z,1.70
2022-11-09T03:30:36.891Z,2.07
2022-11-09T03:33:05.200Z,1.40
2022-11-09T03:35:32.765Z,1.53
2022-11-09T03:38:00.392Z,1.83
2022-11-09T03:40:27.836Z,1.93
2022-11-09T03:42:56.354Z,1.37
2022-11-09T03:45:23.920Z,5.47
2022-11-09T03:47:52.212Z,2.70
2022-11-09T03:50:19.806Z,4.13
2022-11-09T03:52:47.346Z,1.63
2022-11-09T03:55:14.877Z,2.70
2022-11-09T03:57:42.469Z,1.10
2022-11-09T04:00:10.191Z,2.43
2022-11-09T04:02:38.443Z,2.65
2022-11-09T04:05:06.146Z,0.83
2022-11-09T04:07:33.694Z,1.73
2022-11-09T04:10:01.236Z,1.50
2022-11-09T04:12:28.792Z,1.43
2022-11-09T04:14:56.316Z,2.40
2022-11-09T04:17:23.849Z,2.00
2022-11-09T04:19:51.406Z,2.37
2022-11-09T04:22:18.940Z,2.95
2022-11-09T04:24:46.477Z,2.57
2022-11-09T04:27:15.093Z,1.57
2022-11-09T04:29:42.618Z,3.53
2022-11-09T04:32:10.939Z,3.87
2022-11-09T04:34:38.514Z,2.80
2022-11-09T04:37:06.047Z,2.13
2022-11-09T04:39:33.582Z,1.60
2022-11-09T04:42:01.150Z,2.43
2022-11-09T04:44:28.793Z,1.30
2022-11-09T04:46:56.338Z,6.40
2022-11-09T04:49:24.691Z,4.07
2022-11-09T04:51:52.225Z,2.50
2022-11-09T04:54:19.759Z,2.33
2022-11-09T04:56:47.346Z,4.63
2022-11-09T04:59:14.871Z,2.17
2022-11-09T05:01:42.425Z,2.03
2022-11-09T05:04:10.776Z,2.20
2022-11-09T05:06:38.312Z,2.83
2022-11-09T05:09:05.796Z,1.43
2022-11-09T05:11:33.380Z,1.63
2022-11-09T05:14:00.905Z,3.33
2022-11-09T05:16:31.206Z,1.50
2022-11-09T05:18:58.761Z,2.65
2022-11-09T05:21:26.295Z,3.97
2022-11-09T05:23:59.924Z,3.77
2022-11-09T05:26:27.876Z,3.97
2022-11-09T05:28:55.416Z,3.67
2022-11-09T05:31:22.946Z,4.23
2022-11-09T05:33:51.280Z,3.43
2022-11-09T05:36:18.803Z,5.37
2022-11-09T05:38:46.328Z,3.33
2022-11-09T05:41:13.915Z,3.80
2022-11-09T05:43:42.205Z,4.10
2022-11-09T05:46:09.742Z,3.33
2022-11-09T05:48:39.283Z,3.47
2022-11-09T05:51:06.826Z,4.17
2022-11-09T05:53:34.363Z,5.83
2022-11-09T05:56:02.982Z,4.50
2022-11-09T05:58:30.506Z,1.97
2022-11-09T06:00:58.059Z,5.53
2022-11-09T06:03:26.413Z,4.83
2022-11-09T06:05:53.946Z,5.23
2022-11-09T06:08:21.492Z,4.00
2022-11-09T06:10:49.079Z,3.17
2022-11-09T06:13:16.682Z,4.33
2022-11-09T06:15:44.154Z,3.70
2022-11-09T06:18:11.733Z,4.37
2022-11-09T06:20:39.245Z,3.87
2022-11-09T06:23:06.827Z,2.93
2022-11-09T06:25:34.367Z,1.93
2022-11-09T06:28:02.679Z,4.03
2022-11-09T06:30:30.205Z,3.67
2022-11-09T06:32:58.554Z,3.07
2022-11-09T06:35:26.143Z,3.33
2022-11-09T06:37:59.079Z,6.05
2022-11-09T06:40:26.665Z,4.87
2022-11-09T06:42:54.226Z,7.73
2022-11-09T06:45:21.716Z,3.97
2022-11-09T06:47:50.046Z,3.67
2022-11-09T06:50:17.581Z,4.73
2022-11-09T06:52:45.114Z,2.60
2022-11-09T06:55:13.456Z,1.70
2022-11-09T06:57:40.992Z,5.50
2022-11-09T07:00:08.764Z,3.75
2022-11-09T07:02:36.339Z,3.00
2022-11-09T07:05:03.862Z,2.23
2022-11-09T07:07:31.397Z,4.03
2022-11-09T07:09:59.267Z,2.00
2022-11-09T07:12:26.791Z,2.13
2022-11-09T07:14:54.321Z,9.00
2022-11-09T07:17:21.900Z,2.13
2022-11-09T07:19:49.425Z,5.13
2022-11-09T07:22:16.984Z,4.07
2022-11-09T07:24:44.599Z,4.25
2022-11-09T07:27:12.085Z,5.73
2022-11-09T07:29:39.612Z,4.30
2022-11-09T07:32:07.973Z,4.97
2022-11-09T07:34:35.507Z,3.40
2022-11-09T07:37:03.054Z,5.07
2022-11-09T07:39:30.625Z,3.23
2022-11-09T07:41:58.150Z,7.40
2022-11-09T07:44:25.677Z,3.10
2022-11-09T07:46:53.242Z,3.83
2022-11-09T07:49:20.765Z,3.20
2022-11-09T07:51:48.310Z,3.73
2022-11-09T07:54:15.872Z,3.60
2022-11-09T07:56:43.397Z,4.13
2022-11-09T07:59:10.922Z,2.33
2022-11-09T08:01:38.566Z,3.23
2022-11-09T08:04:06.801Z,5.62
2022-11-09T08:06:34.379Z,4.73
2022-11-09T08:09:02.675Z,6.27
2022-11-09T08:11:30.222Z,5.07
2022-11-09T08:13:57.765Z,5.00
2022-11-09T08:16:25.357Z,4.37
2022-11-09T08:18:52.904Z,9.80
2022-11-09T08:21:20.448Z,4.23
2022-11-09T08:23:48.026Z,6.73
2022-11-09T08:26:15.580Z,3.57
2022-11-09T08:28:43.096Z,2.77
2022-11-09T08:31:11.449Z,9.33
2022-11-09T08:33:38.996Z,4.37
2022-11-09T08:36:12.592Z,6.77
2022-11-09T08:38:40.424Z,4.17
2022-11-09T08:41:12.956Z,4.80
2022-11-09T08:43:35.521Z,3.93
2022-11-09T08:46:03.333Z,9.57
2022-11-09T08:48:30.865Z,5.53
2022-11-09T08:50:58.455Z,7.20
2022-11-09T08:53:26.025Z,6.13
2022-11-09T08:55:53.646Z,5.60
2022-11-09T08:58:21.423Z,5.97
2022-11-09T09:00:48.677Z,4.93
2022-11-09T09:03:16.204Z,3.50
2022-11-09T09:05:43.726Z,3.57
2022-11-09T09:08:11.311Z,4.50
2022-11-09T09:10:39.603Z,8.73
2022-11-09T09:13:07.137Z,4.53
2022-11-09T09:15:35.499Z,7.90
2022-11-09T09:18:03.029Z,6.97
2022-11-09T09:20:30.590Z,7.73
2022-11-09T09:23:01.155Z,6.37
2022-11-09T09:25:28.671Z,3.87
2022-11-09T09:27:56.209Z,2.60
2022-11-09T09:30:23.790Z,4.67
2022-11-09T09:32:51.326Z,6.43
2022-11-09T09:35:18.850Z,4.43
2022-11-09T09:37:47.182Z,4.53
2022-11-09T09:40:20.998Z,7.03
2022-11-09T09:42:48.524Z,4.50
2022-11-09T09:45:21.612Z,5.62
2022-11-09T09:47:52.295Z,4.43
2022-11-09T09:50:22.570Z,6.40
2022-11-09T09:53:23.875Z,7.27
2022-11-09T09:55:41.803Z,4.60
2022-11-09T09:58:21.355Z,3.50
2022-11-09T10:00:48.659Z,8.33
2022-11-09T10:03:18.902Z,6.03
2022-11-09T10:06:10.734Z,10.20
2022-11-09T10:08:56.602Z,8.47
2022-11-09T10:11:36.148Z,7.72
2022-11-09T10:14:40.804Z,5.57
2022-11-09T10:17:29.687Z,6.07
2022-11-09T10:20:19.281Z,4.78
2022-11-09T10:23:17.756Z,6.83
2022-11-09T10:26:02.955Z,8.60
2022-11-09T10:28:13.351Z,8.73
2022-11-09T10:30:40.387Z,3.47
2022-11-09T10:33:10.878Z,7.10
2022-11-09T10:35:38.414Z,4.07
2022-11-09T10:38:06.756Z,6.13
2022-11-09T10:40:46.323Z,4.60
2022-11-09T10:43:14.655Z,3.27
2022-11-09T10:45:42.195Z,6.60
2022-11-09T10:48:09.715Z,3.57
2022-11-09T10:50:40.991Z,4.13
2022-11-09T10:53:10.997Z,3.80
2022-11-09T10:55:38.512Z,3.80
2022-11-09T10:58:18.198Z,9.03
2022-11-09T11:01:00.987Z,5.07
2022-11-09T11:03:28.539Z,7.00
2022-11-09T11:05:59.006Z,8.03
2022-11-09T11:08:29.318Z,9.52
2022-11-09T11:11:37.786Z,6.30
2022-11-09T11:13:49.309Z,6.87
2022-11-09T11:16:26.453Z,4.37
2022-11-09T11:18:53.998Z,6.63
2022-11-09T11:21:21.514Z,6.23
2022-11-09T11:24:17.336Z,5.07
2022-11-09T11:26:48.140Z,5.53
2022-11-09T11:29:36.992Z,6.27
2022-11-09T11:32:04.527Z,5.70
2022-11-09T11:34:58.681Z,7.20
2022-11-09T11:37:29.991Z,7.78
2022-11-09T11:40:00.087Z,4.77
2022-11-09T11:42:45.918Z,7.20
2022-11-09T11:45:39.540Z,5.97
2022-11-09T11:48:05.757Z,5.53
2022-11-09T11:50:51.577Z,5.80
2022-11-09T11:53:24.680Z,4.87
2022-11-09T11:56:13.064Z,13.07
2022-11-09T11:58:49.518Z,8.27
2022-11-09T12:01:38.881Z,6.20
2022-11-09T12:04:32.152Z,8.03
2022-11-09T12:07:20.197Z,5.57
2022-11-09T12:10:12.343Z,4.63
2022-11-09T12:12:51.936Z,4.23
2022-11-09T12:15:37.253Z,5.43
2022-11-09T12:18:38.156Z,6.85
2022-11-09T12:21:17.842Z,7.53
2022-11-09T12:23:45.337Z,6.43
2022-11-09T12:26:40.107Z,9.43
2022-11-09T12:29:13.533Z,5.43
2022-11-09T12:31:59.416Z,6.83
2022-11-09T12:34:35.527Z,7.07
2022-11-09T12:37:15.292Z,11.10
2022-11-09T12:39:42.816Z,2.87
2022-11-09T12:42:11.134Z,9.00
2022-11-09T12:44:38.703Z,7.30
2022-11-09T12:47:11.880Z,6.60
2022-11-09T12:49:41.944Z,4.23
2022-11-09T12:52:09.509Z,5.33
2022-11-09T12:54:37.036Z,11.17
2022-11-09T12:57:07.040Z,8.30
2022-11-09T12:59:34.615Z,7.00
2022-11-09T13:02:02.193Z,8.07
2022-11-09T13:04:29.683Z,7.97
2022-11-09T13:07:10.070Z,3.03
2022-11-09T13:09:44.781Z,5.83
2022-11-09T13:12:19.887Z,6.83
2022-11-09T13:14:47.422Z,3.13
2022-11-09T13:17:24.112Z,5.10
2022-11-09T13:19:51.658Z,3.40
2022-11-09T13:22:21.895Z,7.18
2022-11-09T13:24:55.178Z,6.80
2022-11-09T13:27:43.396Z,6.20
2022-11-09T13:30:25.898Z,6.10
2022-11-09T13:33:08.378Z,2.93
2022-11-09T13:35:42.966Z,6.40
2022-11-09T13:38:22.411Z,3.97
2022-11-09T13:40:52.776Z,7.60
2022-11-09T13:43:29.650Z,5.10
2022-11-09T13:46:02.976Z,4.27
2022-11-09T13:48:42.296Z,6.07
2022-11-09T13:51:09.892Z,4.13
2022-11-09T13:53:37.436Z,5.43
2022-11-09T13:56:14.207Z,4.95
2022-11-09T13:58:41.791Z,4.37
2022-11-09T14:01:27.839Z,6.60
2022-11-09T14:03:55.356Z,5.00
2022-11-09T14:06:22.886Z,5.40
2022-11-09T14:08:50.419Z,7.03
2022-11-09T14:11:32.685Z,5.93
2022-11-09T14:14:09.495Z,3.77
2022-11-09T14:17:07.403Z,4.33
2022-11-09T14:19:59.654Z,4.47
2022-11-09T14:22:27.198Z,5.97
2022-11-09T14:24:54.722Z,5.95
2022-11-09T14:27:22.266Z,5.30
2022-11-09T14:29:52.805Z,6.33
2022-11-09T14:32:32.283Z,10.00
2022-11-09T14:35:12.105Z,7.07
2022-11-09T14:37:39.631Z,7.57
2022-11-09T14:40:08.050Z,5.80
2022-11-09T14:42:36.364Z,3.07
2022-11-09T14:45:03.908Z,4.23
2022-11-09T14:47:31.437Z,5.73
2022-11-09T14:49:59.003Z,10.13
2022-11-09T14:52:29.220Z,5.80
2022-11-09T14:54:56.747Z,4.90
2022-11-09T14:57:25.097Z,4.47
2022-11-09T14:59:52.631Z,4.60
2022-11-09T15:02:20.185Z,4.53
2022-11-09T15:04:53.628Z,9.27
2022-11-09T15:07:21.957Z,5.80
2022-11-09T15:09:49.447Z,4.77
2022-11-09T15:12:17.032Z,4.83
2022-11-09T15:14:48.287Z,5.93
2022-11-09T15:17:15.839Z,7.23
2022-11-09T15:19:49.695Z,9.03
2022-11-09T15:22:54.703Z,4.13
2022-11-09T15:25:31.473Z,6.12
2022-11-09T15:27:59.057Z,7.10
2022-11-09T15:30:29.577Z,3.87
2022-11-09T15:32:57.177Z,5.83
2022-11-09T15:35:24.708Z,7.17
2022-11-09T15:37:52.234Z,6.95
2022-11-09T15:40:19.804Z,5.97
2022-11-09T15:42:47.350Z,5.07
2022-11-09T15:45:14.933Z,3.67
2022-11-09T15:47:43.221Z,5.93
2022-11-09T15:50:16.759Z,5.10
2022-11-09T15:52:45.059Z,5.27
2022-11-09T15:55:15.361Z,6.93
2022-11-09T15:57:43.673Z,3.03
2022-11-09T16:00:19.293Z,6.53
2022-11-09T16:02:41.889Z,7.57
2022-11-09T16:05:09.426Z,4.40
2022-11-09T16:07:36.968Z,6.63
2022-11-09T16:10:04.543Z,8.43
2022-11-09T16:12:32.070Z,7.83
2022-11-09T16:15:00.380Z,9.87
2022-11-09T16:17:27.956Z,3.63
2022-11-09T16:19:55.489Z,5.00
2022-11-09T16:22:23.013Z,6.50
2022-11-09T16:24:51.355Z,4.77
2022-11-09T16:27:43.388Z,4.93
2022-11-09T16:29:46.504Z,10.20
2022-11-09T16:32:14.069Z,9.10
2022-11-09T16:34:42.362Z,5.50
2022-11-09T16:37:10.664Z,6.77
2022-11-09T16:39:38.251Z,4.37
2022-11-09T16:42:08.227Z,6.63
2022-11-09T16:44:35.761Z,6.87
2022-11-09T16:47:03.354Z,5.23
2022-11-09T16:49:31.629Z,2.83
2022-11-09T16:51:59.162Z,6.27
2022-11-09T16:54:27.514Z,4.13
2022-11-09T16:56:55.048Z,5.07
2022-11-09T16:59:22.563Z,5.70
2022-11-09T17:01:56.775Z,3.90
2022-11-09T17:04:24.218Z,8.23
2022-11-09T17:06:52.599Z,9.13
2022-11-09T17:09:20.370Z,3.60
2022-11-09T17:11:48.663Z,5.77
2022-11-09T17:14:16.189Z,8.50
2022-11-09T17:16:43.759Z,8.20
2022-11-09T17:19:12.060Z,8.10
2022-11-09T17:21:39.583Z,8.97
2022-11-09T17:24:07.498Z,6.47
2022-11-09T17:26:35.013Z,12.10
2022-11-09T17:29:03.322Z,7.70
2022-11-09T17:31:30.902Z,8.63
2022-11-09T17:34:01.167Z,5.87
2022-11-09T17:36:56.917Z,8.50
2022-11-09T17:38:54.314Z,6.43
2022-11-09T17:41:21.843Z,5.47
2022-11-09T17:43:49.363Z,8.13
2022-11-09T17:46:17.753Z,8.70
2022-11-09T17:48:46.055Z,9.87
2022-11-09T17:51:13.602Z,7.67
2022-11-09T17:53:41.176Z,5.23
2022-11-09T17:56:08.699Z,6.87
2022-11-09T17:58:39.753Z,6.47
2022-11-09T18:01:08.158Z,7.13
2022-11-09T18:03:36.439Z,5.27
2022-11-09T18:06:03.968Z,7.73
2022-11-09T18:08:31.543Z,5.63
2022-11-09T18:10:59.071Z,5.13
2022-11-09T18:13:27.372Z,5.67
2022-11-09T18:15:54.945Z,9.73
2022-11-09T18:18:22.849Z,9.07
2022-11-09T18:20:50.870Z,6.10
2022-11-09T18:23:18.449Z,7.37
2022-11-09T18:25:45.991Z,7.20
2022-11-09T18:28:13.527Z,7.95
2022-11-09T18:30:41.936Z,7.57
2022-11-09T18:33:09.409Z,6.47
2022-11-09T18:35:36.935Z,4.57
2022-11-09T18:38:04.539Z,8.10
2022-11-09T18:40:32.094Z,13.20
2022-11-09T18:42:59.668Z,7.03
2022-11-09T18:45:27.262Z,7.50
2022-11-09T18:47:55.573Z,9.45
2022-11-09T18:50:23.109Z,6.53
2022-11-09T18:52:50.685Z,7.93
2022-11-09T18:55:18.277Z,9.33
2022-11-09T18:57:46.520Z,8.43
2022-11-09T19:00:14.390Z,9.77
2022-11-09T19:02:41.973Z,8.27
2022-11-09T19:05:09.469Z,10.73
2022-11-09T19:07:38.088Z,12.73
2022-11-09T19:10:05.626Z,7.33
2022-11-09T19:12:33.908Z,9.13
2022-11-09T19:15:01.521Z,6.60
2022-11-09T19:17:29.016Z,7.30
2022-11-09T19:19:57.318Z,8.03
2022-11-09T19:22:24.903Z,8.90
2022-11-09T19:24:52.437Z,12.77
2022-11-09T19:27:19.971Z,11.00
2022-11-09T19:29:47.537Z,9.93
2022-11-09T19:32:15.068Z,7.07
2022-11-09T19:34:42.724Z,8.60
2022-11-09T19:37:10.185Z,9.87
2022-11-09T19:39:42.657Z,5.17
2022-11-09T19:42:05.305Z,10.73
2022-11-09T19:44:33.128Z,6.60
2022-11-09T19:47:00.656Z,7.23
2022-11-09T19:49:28.188Z,7.03
2022-11-09T19:51:55.809Z,7.27
2022-11-09T19:54:23.345Z,15.17
2022-11-09T19:56:50.890Z,10.73
2022-11-09T19:59:19.231Z,9.53
2022-11-09T20:01:46.756Z,9.50
2022-11-09T20:04:14.292Z,10.45
2022-11-09T20:06:41.923Z,15.10
2022-11-09T20:09:09.408Z,14.60
2022-11-09T20:11:55.228Z,14.40
2022-11-09T20:14:22.755Z,18.10
2022-11-09T20:16:50.278Z,13.63
2022-11-09T20:19:17.851Z,16.20
2022-11-09T20:21:46.165Z,13.00
2022-11-09T20:24:13.708Z,11.63
2022-11-09T20:26:41.295Z,9.13
2022-11-09T20:29:08.837Z,13.90
2022-11-09T20:31:36.372Z,14.67
2022-11-09T20:34:04.722Z,11.53
2022-11-09T20:36:32.258Z,7.23
2022-11-09T20:38:59.795Z,12.52
2022-11-09T20:41:27.386Z,14.20
2022-11-09T20:43:54.922Z,8.57
2022-11-09T20:46:22.468Z,14.20
2022-11-09T20:48:55.367Z,11.93
2022-11-09T20:51:17.861Z,8.80
2022-11-09T20:53:46.183Z,13.67
2022-11-09T20:56:16.287Z,12.07
2022-11-09T20:58:43.834Z,7.43
2022-11-09T21:01:14.102Z,10.03
2022-11-09T21:03:42.387Z,11.57
2022-11-09T21:06:09.931Z,10.27
2022-11-09T21:08:37.476Z,14.73
2022-11-09T21:11:05.060Z,10.17
2022-11-09T21:13:32.594Z,9.07
2022-11-09T21:16:09.505Z,11.95
2022-11-09T21:18:37.100Z,16.07
2022-11-09T21:21:07.597Z,9.77
2022-11-09T21:23:53.152Z,13.90
2022-11-09T21:26:38.754Z,10.83
2022-11-09T21:29:24.561Z,11.40
2022-11-09T21:31:52.902Z,12.17
2022-11-09T21:34:20.416Z,10.73
2022-11-09T21:36:48.760Z,12.87
2022-11-09T21:39:16.294Z,11.87
2022-11-09T21:41:43.852Z,13.73
2022-11-09T21:44:11.413Z,10.13
2022-11-09T21:46:38.975Z,10.07
2022-11-09T21:49:06.502Z,8.50
2022-11-09T21:51:34.981Z,10.07
2022-11-09T21:54:02.508Z,9.63
2022-11-09T21:56:30.050Z,9.73
2022-11-09T21:58:57.643Z,10.93
2022-11-09T22:01:25.964Z,12.15
2022-11-09T22:03:54.221Z,11.80
2022-11-09T22:06:21.844Z,9.93
2022-11-09T22:08:49.350Z,11.20
2022-11-09T22:11:17.037Z,13.75
2022-11-09T22:14:02.582Z,10.57
2022-11-09T22:16:32.817Z,13.70
2022-11-09T22:19:21.168Z,10.37
2022-11-09T22:21:48.689Z,11.70
2022-11-09T22:24:16.225Z,10.53
2022-11-09T22:26:44.558Z,13.87
2022-11-09T22:29:12.083Z,11.90
2022-11-09T22:31:39.634Z,15.37
2022-11-09T22:34:07.969Z,10.97
2022-11-09T22:36:35.523Z,15.57
2022-11-09T22:39:03.049Z,11.77
2022-11-09T22:41:30.628Z,14.27
2022-11-09T22:43:58.161Z,12.37
2022-11-09T22:46:25.706Z,15.30
2022-11-09T22:48:54.058Z,14.33
2022-11-09T22:51:21.593Z,11.43
2022-11-09T22:53:49.126Z,13.80
2022-11-09T22:56:16.733Z,10.63
2022-11-09T22:58:44.277Z,13.13
2022-11-09T23:01:14.644Z,17.70
2022-11-09T23:03:42.108Z,11.70
2022-11-09T23:06:16.164Z,10.43
2022-11-09T23:08:43.680Z,11.33
2022-11-09T23:11:13.666Z,12.67
2022-11-09T23:13:41.212Z,11.30
2022-11-09T23:16:08.765Z,14.67
2022-11-09T23:18:54.736Z,18.27
2022-11-09T23:21:22.218Z,11.93
2022-11-09T23:23:49.761Z,15.80
2022-11-09T23:26:17.327Z,14.25
2022-11-09T23:28:44.861Z,17.20
2022-11-09T23:31:12.397Z,11.13
2022-11-09T23:33:39.970Z,13.90
2022-11-09T23:36:07.505Z,11.50
2022-11-09T23:38:35.818Z,10.33
2022-11-09T23:41:03.362Z,11.77
2022-11-09T23:43:30.889Z,11.17
2022-11-09T23:46:02.233Z,9.07
2022-11-09T23:48:30.556Z,12.47
2022-11-09T23:50:58.089Z,8.67
2022-11-09T23:53:29.103Z,10.10
2022-11-09T23:55:59.599Z,11.33
2022-11-09T23:58:27.124Z,13.47
